Timeline UpdatesTrip UpdatesNews PostsPvt PostsTravel TipsAdmin PostsConv PostsFollowed PostsChat RequestsBlog PostsPNR Posts

Disclaimer
Search
 
 
Wed Jul 23, 2014 01:06:37 ISTHomeTrainsΣChainsAtlasPNRForumGalleryNewsFAQTripsMembersLoginFeedback
No Recent News for this Train
Other Trains in the News **new
Latest...
Will Reach MAS @ 04.25 Wef 01/07/2014.
Sat Jun 28, 2014 (08:32PM)
⇐ Return Journey: Train# 11028

11027/Mumbai CST-Chennai Mail

Jul 03 (2:30PM)
Change Departure Station:
Change Arrival Station:
Post a Train Travel TipPost a Train Travel Tip **new
Post a Comment/Question/Picture/VideoPost a Comment/Question/Picture/Video
Pantry/Catering
✓ Pantry Car Avbl
✓ Catering Avbl
RSA - Rake Sharing
11042 Mumbai Express
Rake/Coach Composition
Loco ;SLR ,UR ,S1, S2, S3, S4, S5, S6, S7,PC ,S8,S9,S10,A1,B1 ,RMS ,UR,LDS ,S11 (S11 From Daund Junction To Solapur)
Loco
CSTM-PUNE: KYN WCAM-2P / 3 PUNE-GTL: GY WDM-3A/3D GTL-MAS: LGD WAP4
News    PNR    Forum    Time-Table    Availability    Fare Chart    Map    Arr/Dep History    Trips    Gallery    ΣChains    X/O    Timeline    
Travel Time: 2h 0m    2 halts    Distance: 92 km    Avg Speed: 46 km/hr
Type: Mail/Express
Zone: CR/Central
Departs @ 01:25 (Avg 25m late)
Platform# 1
SMTWTFS
Karjat Junction/KJT 
Arrives @ 03:25 (Avg 10m late)
Platform# 4
SMTWTFS
Pune Junction/PUNE 

2 halts. 24 intermediate Stations between Karjat Junction and Pune Junction

Show ALL intermediate Stations  Show Old Time-Table

#CodeStation NameX/OArrivesAvgDepartsAvgHaltPFDay#KmSpeedElevZoneAddress
1CSTMMumbai CST (18)  -23:45+3--1-99.96510mCRMumbai 400001, Maharashtra
2DRMumbai Dadar Central (8)  23:53+823:55+82m51-91.3677mCRMumbai 400014, Maharashtra
3KYNKalyan Junction (8)  00:35+1500:40+185m52-46.96510mCRKalyan 421301, Maharashtra
4KJT»Karjat Junction (4)»X01:23+2101:25+252m120.03657mCRKarjat, Maharashtra
5LNLLonavala (3)02:13+1002:15+112m2228.680623mCRLonavala 410401, Maharashtra
6KKKhadki (3)X  02:58+2003:00+192m1286.314562mCRPune 411003, Maharashtra
7PUNE•Pune Junction (6)•03:25+1003:35+2010m4292.350556mCRPune 411001, Maharashtra
8DDDaund Junction (7)05:05+105:15+1110m32167.972521mCRNew Daund Dist. Pune 413801, Maharashtra
9BGVNBhigwan (2)X  05:38+1505:40+192m12195.558509mCRDaund, Maharashtra
10JEURJeur (1)XO  06:28+3606:30+412m12241.654526mCRJeur, Maharashtra
11KEMKem (2)O  06:48+4006:50+442m12257.727548mCRKem, Maharashtra
12KWVKurduvadi Junction (4)XO  07:30+3107:32+372m22275.860516mCRKurduvadi Dist-Solapur, Maharashtra
13MAMadha (2)O  07:48+3807:50+392m22291.762481mCRSolapur, Maharashtra
14MOMohol (2)  08:19+3908:21+402m12321.537458mCRSolapur, Maharashtra
15SURSolapur (5)09:15+2109:25+3010m12354.864461mCRSolapur 413001, Maharashtra
16HGHotgi Junction (3)X  09:39+3709:41+382m22369.881473mCRHotgi 413215, Maharashtra
17AKORAkalkot Road (2)  09:56+4509:58+462m12390.167456mCRDist Solapur, Maharashtra
18DUDDudhani (2)X  10:23+5510:25+562m12418.066457mCRSolapur, Maharashtra
19GURGanagapur Road  10:46+5610:48+562m12441.040445mCRDist Gulbarga, Karnataka
20GRGulbarga (4)  11:28+3911:30+402m32467.457458mCRGulbarga 585101, Karnataka
21SDBShahabad (3)X  11:58+3412:00+342m22494.112403mCRShahabad, Karnataka
22WADIWadi Junction (4)  12:50+112:55+45m22504.263431mCRWadi, Karnataka
23NWNalwar (2)  13:08+1513:10+142m22517.969406mSCRGulbarga, Karnataka
24YGYadgir (3)  13:32+1413:34+152m12543.382369mSCRYadgir, Karnataka
25SADPSaidapur (3)  13:51+2013:53+202m12566.481377mSCRYadgir Dist., Karnataka
26KSNKrishna (2)  14:08+2414:10+242m12586.735352mSCRDist Mahabubnagar, Telangana
27RCRaichur Junction (3)  14:53+1214:55+162m12611.8129406mSCRRaichur, Karnataka
28MTUMatmariX  15:03+2715:05+272m12629.129371mSCRRaichur, Karnataka
29MALMMantralayam Road (3)X  15:28+1815:30+292m12640.244335mSCRKurnool Tel: 08512-259830, Andhra Pradesh
30KOKosigi (2)X  15:48+2715:50+262m12653.446379mSCRKurnool Dist., Andhra Pradesh
31KGLKupgal (2)  16:08+2316:10+232m12667.118417mSCRKurnool Dist., Andhra Pradesh
32ADAdoni (4)  16:58+417:00+62m12681.571420mSCRAdoni Tel: 08512-252368, Andhra Pradesh
33NRRNagarur (2)  17:08+1117:10+112m12691.057427mSCRKurnool, Andhra Pradesh
34GTLGuntakal Junction (6)17:55+1918:15+2220m22733.569453mSCRGuntakal. Tel: 08552-227131/32, Andhra Pradesh
35GYGooty Junction (2)  18:40+2918:42+312m--2762.179370mSCRNH 7 Anantapur District, Andhra Pradesh
36RLORayala Cheruvu (2)  19:00+3919:02+392m--2785.757292mSCRRayalacheruvu, Andhra Pradesh
37TUTadipatri (3)19:28+3919:30+392m--2810.251243mSCRAnantapuram Dist, Andhra Pradesh
38KDPKondapuram (2)  20:03+3620:05+362m--2838.279214mSCRKadapa (YSR District), Andhra Pradesh
39MOOMuddanuru (3)  20:23+4020:25+402m--2861.875194mSCRKadapa (YSR District), Andhra Pradesh
40YAYerraguntla (2)  20:38+4620:40+462m--2878.151171mSCRKadapa / Cuddapah (YSR District), Andhra Pradesh
41KKMKamalapuram (2)  20:58+4821:00+472m--2893.543141mSCRKadapa (YSR District), Andhra Pradesh
42HXKadapa (3)  21:33+3821:35+402m12917.251146mSCRCuddapah, Andhra Pradesh
43NRENandalur  22:23+2822:25+282m--2957.735143mSCRRayalaseema Region, Andhra Pradesh
44RJPRazampeta (2)  22:43+2622:45+262m--2968.272144mSCRKadapa (YSR District), Andhra Pradesh
45KOUKoduru (2)  23:13+2623:15+262m--21001.829215mSCRKadapa (YSR District), Andhra Pradesh
46RURenigunta Junction (5)X  00:40+201:00+420m131042.661113mSCRChittoor District, Andhra Pradesh
47PUTPuttur (3)  01:23+1301:25+132m--31066.159149mSRPuttur, Andhra Pradesh
48TRTTiruttani (3)  01:58+802:00+92m331098.54384mSRTiruttani, Tamil Nadu
49AJJArakkonam Junction (8)  02:20+902:25+95m--31112.87091mSRArakkonam, Tamil Nadu
50TRLTiruvallur (6)  02:48+1302:50+132m--31139.86650mSRTiruvallur, Tamil Nadu
51PERPerambur (4)  03:23+1203:25+122m--31175.967mSRChennai-600011 Phone: 044-25510359, Tamil Nadu
52MASChennai Central (12)  04:25+0-131181.4-9mSRChennai 600003, Tamil Nadu
Scroll to Top
Scroll to Bottom